sensor_id;sensor_type;location;lat;lon;timestamp;pressure;altitude;pressure_sealevel;temperature;humidity
77723;BME280;67811;42.656;23.394;2023-07-20T00:00:01;94753.59;;;22.79;51.95
77723;BME280;67811;42.656;23.394;2023-07-20T00:02:26;94761.13;;;22.47;53.07
77723;BME280;67811;42.656;23.394;2023-07-20T00:04:52;94766.22;;;22.33;53.72
77723;BME280;67811;42.656;23.394;2023-07-20T00:07:17;94771.06;;;22.26;54.45
77723;BME280;67811;42.656;23.394;2023-07-20T00:09:42;94773.78;;;22.31;54.74
77723;BME280;67811;42.656;23.394;2023-07-20T00:12:08;94752.19;;;22.26;54.97
77723;BME280;67811;42.656;23.394;2023-07-20T00:14:33;94766.72;;;22.15;55.74
77723;BME280;67811;42.656;23.394;2023-07-20T00:16:58;94770.69;;;22.07;56.05
77723;BME280;67811;42.656;23.394;2023-07-20T00:19:27;94776.31;;;21.95;56.44
77723;BME280;67811;42.656;23.394;2023-07-20T00:21:54;94757.66;;;21.83;57.01
77723;BME280;67811;42.656;23.394;2023-07-20T00:24:19;94749.22;;;21.75;57.20
77723;BME280;67811;42.656;23.394;2023-07-20T00:26:44;94762.94;;;21.63;57.95
77723;BME280;67811;42.656;23.394;2023-07-20T00:29:10;94771.22;;;21.51;59.11
77723;BME280;67811;42.656;23.394;2023-07-20T00:31:35;94758.38;;;21.26;60.43
77723;BME280;67811;42.656;23.394;2023-07-20T00:34:01;94744.22;;;21.09;60.77
77723;BME280;67811;42.656;23.394;2023-07-20T00:36:26;94740.63;;;20.93;61.59
77723;BME280;67811;42.656;23.394;2023-07-20T00:38:51;94743.53;;;20.87;61.62
77723;BME280;67811;42.656;23.394;2023-07-20T00:41:17;94743.75;;;20.80;61.84
77723;BME280;67811;42.656;23.394;2023-07-20T00:43:42;94763.19;;;20.87;61.50
77723;BME280;67811;42.656;23.394;2023-07-20T00:46:08;94757.38;;;21.00;61.08
77723;BME280;67811;42.656;23.394;2023-07-20T00:48:34;94747.78;;;21.15;60.62
77723;BME280;67811;42.656;23.394;2023-07-20T00:51:00;94745.50;;;21.34;60.19
77723;BME280;67811;42.656;23.394;2023-07-20T00:53:26;94740.47;;;21.47;58.78
77723;BME280;67811;42.656;23.394;2023-07-20T00:55:52;94740.44;;;21.42;58.98
77723;BME280;67811;42.656;23.394;2023-07-20T00:58:17;94730.69;;;21.36;59.49
77723;BME280;67811;42.656;23.394;2023-07-20T01:00:43;94722.28;;;21.27;59.47
77723;BME280;67811;42.656;23.394;2023-07-20T01:03:08;94732.25;;;21.27;59.64
77723;BME280;67811;42.656;23.394;2023-07-20T01:11:23;94747.94;;;21.35;62.45
77723;BME280;67811;42.656;23.394;2023-07-20T01:13:53;94751.75;;;21.39;63.69
77723;BME280;67811;42.656;23.394;2023-07-20T01:16:18;94749.16;;;21.17;65.19
77723;BME280;67811;42.656;23.394;2023-07-20T01:18:44;94756.38;;;21.12;65.46
77723;BME280;67811;42.656;23.394;2023-07-20T01:21:13;94761.03;;;21.21;65.90
77723;BME280;67811;42.656;23.394;2023-07-20T01:32:00;94731.56;;;21.04;65.88
77723;BME280;67811;42.656;23.394;2023-07-20T01:34:28;94737.53;;;20.79;66.74
77723;BME280;67811;42.656;23.394;2023-07-20T01:36:54;94741.34;;;20.84;66.55
77723;BME280;67811;42.656;23.394;2023-07-20T01:39:21;94743.16;;;20.73;66.65
77723;BME280;67811;42.656;23.394;2023-07-20T01:41:46;94758.28;;;20.79;66.38
77723;BME280;67811;42.656;23.394;2023-07-20T01:44:12;94750.09;;;20.69;66.98
77723;BME280;67811;42.656;23.394;2023-07-20T01:46:38;94751.81;;;20.80;66.49
77723;BME280;67811;42.656;23.394;2023-07-20T01:49:03;94744.22;;;20.72;66.81
77723;BME280;67811;42.656;23.394;2023-07-20T01:51:28;94746.16;;;20.82;66.15
77723;BME280;67811;42.656;23.394;2023-07-20T01:53:53;94737.03;;;20.83;65.73
77723;BME280;67811;42.656;23.394;2023-07-20T01:56:19;94738.97;;;20.55;66.72
77723;BME280;67811;42.656;23.394;2023-07-20T01:58:44;94740.38;;;20.63;66.47
77723;BME280;67811;42.656;23.394;2023-07-20T02:01:09;94738.25;;;20.70;66.17
77723;BME280;67811;42.656;23.394;2023-07-20T02:03:34;94737.00;;;20.77;65.46
77723;BME280;67811;42.656;23.394;2023-07-20T02:06:00;94733.44;;;20.72;65.35
77723;BME280;67811;42.656;23.394;2023-07-20T02:08:25;94727.75;;;20.68;64.66
77723;BME280;67811;42.656;23.394;2023-07-20T02:10:50;94728.38;;;20.48;65.43
77723;BME280;67811;42.656;23.394;2023-07-20T02:13:16;94731.78;;;20.39;65.50
77723;BME280;67811;42.656;23.394;2023-07-20T02:15:41;94727.25;;;20.17;65.73
77723;BME280;67811;42.656;23.394;2023-07-20T02:18:07;94723.44;;;20.13;65.90
77723;BME280;67811;42.656;23.394;2023-07-20T02:20:32;94724.44;;;20.07;66.46
77723;BME280;67811;42.656;23.394;2023-07-20T02:22:57;94725.75;;;20.05;66.32
77723;BME280;67811;42.656;23.394;2023-07-20T02:25:23;94733.59;;;20.06;66.32
77723;BME280;67811;42.656;23.394;2023-07-20T02:27:48;94735.75;;;20.09;66.24
77723;BME280;67811;42.656;23.394;2023-07-20T02:30:13;94730.09;;;20.06;66.34
77723;BME280;67811;42.656;23.394;2023-07-20T02:32:38;94732.31;;;20.14;66.22
77723;BME280;67811;42.656;23.394;2023-07-20T02:35:04;94729.72;;;19.97;66.25
77723;BME280;67811;42.656;23.394;2023-07-20T02:37:30;94733.66;;;19.89;66.73
77723;BME280;67811;42.656;23.394;2023-07-20T02:39:55;94729.03;;;19.85;67.07
77723;BME280;67811;42.656;23.394;2023-07-20T02:42:20;94724.47;;;19.85;67.03
77723;BME280;67811;42.656;23.394;2023-07-20T02:44:46;94717.22;;;19.86;66.76
77723;BME280;67811;42.656;23.394;2023-07-20T02:47:11;94710.16;;;19.80;66.97
77723;BME280;67811;42.656;23.394;2023-07-20T02:49:36;94704.19;;;19.78;66.93
77723;BME280;67811;42.656;23.394;2023-07-20T02:52:02;94702.34;;;19.78;67.13
77723;BME280;67811;42.656;23.394;2023-07-20T02:54:29;94700.41;;;19.73;67.48
77723;BME280;67811;42.656;23.394;2023-07-20T02:56:54;94694.00;;;19.58;67.68
77723;BME280;67811;42.656;23.394;2023-07-20T02:59:20;94701.25;;;19.35;68.57
77723;BME280;67811;42.656;23.394;2023-07-20T03:01:45;94702.16;;;19.24;69.38
77723;BME280;67811;42.656;23.394;2023-07-20T03:04:10;94712.09;;;19.24;69.17
77723;BME280;67811;42.656;23.394;2023-07-20T03:06:36;94706.06;;;19.16;69.54
77723;BME280;67811;42.656;23.394;2023-07-20T03:09:02;94709.50;;;19.12;69.65
77723;BME280;67811;42.656;23.394;2023-07-20T03:11:27;94711.44;;;19.16;69.54
77723;BME280;67811;42.656;23.394;2023-07-20T03:13:53;94709.41;;;19.24;69.22
77723;BME280;67811;42.656;23.394;2023-07-20T03:16:19;94712.00;;;19.35;69.26
77723;BME280;67811;42.656;23.394;2023-07-20T03:18:44;94712.41;;;19.49;68.61
77723;BME280;67811;42.656;23.394;2023-07-20T03:21:10;94720.72;;;19.64;68.42
77723;BME280;67811;42.656;23.394;2023-07-20T03:23:35;94720.38;;;19.83;67.48
77723;BME280;67811;42.656;23.394;2023-07-20T03:26:01;94726.63;;;19.88;67.07
77723;BME280;67811;42.656;23.394;2023-07-20T03:28:26;94722.41;;;19.92;66.75
77723;BME280;67811;42.656;23.394;2023-07-20T03:30:57;94726.75;;;19.98;66.66
77723;BME280;67811;42.656;23.394;2023-07-20T03:33:27;94734.59;;;20.00;66.68
77723;BME280;67811;42.656;23.394;2023-07-20T03:35:53;94732.06;;;20.15;65.39
77723;BME280;67811;42.656;23.394;2023-07-20T03:38:18;94721.31;;;19.93;65.70
77723;BME280;67811;42.656;23.394;2023-07-20T03:40:56;94721.47;;;19.82;66.63
77723;BME280;67811;42.656;23.394;2023-07-20T03:43:23;94737.09;;;19.85;67.26
77723;BME280;67811;42.656;23.394;2023-07-20T03:45:49;94736.22;;;20.01;66.82
77723;BME280;67811;42.656;23.394;2023-07-20T03:48:19;94740.81;;;20.27;66.96
77723;BME280;67811;42.656;23.394;2023-07-20T03:50:45;94729.91;;;20.39;67.34
77723;BME280;67811;42.656;23.394;2023-07-20T03:53:15;94735.63;;;20.48;67.02
77723;BME280;67811;42.656;23.394;2023-07-20T03:55:41;94737.66;;;20.63;67.05
77723;BME280;67811;42.656;23.394;2023-07-20T03:58:07;94734.34;;;20.83;66.77
77723;BME280;67811;42.656;23.394;2023-07-20T04:00:33;94736.25;;;20.87;65.99
77723;BME280;67811;42.656;23.394;2023-07-20T04:02:59;94742.94;;;20.79;66.23
77723;BME280;67811;42.656;23.394;2023-07-20T04:05:24;94740.28;;;20.85;66.19
77723;BME280;67811;42.656;23.394;2023-07-20T04:07:49;94733.28;;;20.84;66.19
77723;BME280;67811;42.656;23.394;2023-07-20T04:10:14;94735.53;;;20.97;65.95
77723;BME280;67811;42.656;23.394;2023-07-20T04:12:40;94731.13;;;21.23;64.94
77723;BME280;67811;42.656;23.394;2023-07-20T04:15:05;94736.13;;;21.41;64.51
77723;BME280;67811;42.656;23.394;2023-07-20T04:17:31;94730.00;;;21.56;63.68
77723;BME280;67811;42.656;23.394;2023-07-20T04:19:56;94731.63;;;21.57;63.52
77723;BME280;67811;42.656;23.394;2023-07-20T04:22:21;94730.88;;;21.67;63.56
77723;BME280;67811;42.656;23.394;2023-07-20T04:24:47;94729.81;;;21.73;63.24
77723;BME280;67811;42.656;23.394;2023-07-20T04:27:12;94729.22;;;21.61;62.46
77723;BME280;67811;42.656;23.394;2023-07-20T04:29:37;94720.56;;;21.58;63.07
77723;BME280;67811;42.656;23.394;2023-07-20T04:32:03;94724.41;;;21.68;62.75
77723;BME280;67811;42.656;23.394;2023-07-20T04:34:28;94722.25;;;21.65;62.31
77723;BME280;67811;42.656;23.394;2023-07-20T04:36:53;94720.03;;;21.56;61.96
77723;BME280;67811;42.656;23.394;2023-07-20T04:39:18;94720.72;;;21.37;62.17
77723;BME280;67811;42.656;23.394;2023-07-20T04:41:44;94718.69;;;21.17;62.27
77723;BME280;67811;42.656;23.394;2023-07-20T04:44:09;94712.59;;;21.31;61.70
77723;BME280;67811;42.656;23.394;2023-07-20T04:46:34;94705.91;;;21.34;61.62
77723;BME280;67811;42.656;23.394;2023-07-20T04:49:00;94705.91;;;21.34;61.33
77723;BME280;67811;42.656;23.394;2023-07-20T04:51:25;94706.97;;;21.33;61.16
77723;BME280;67811;42.656;23.394;2023-07-20T04:53:50;94710.28;;;21.45;60.99
77723;BME280;67811;42.656;23.394;2023-07-20T04:56:15;94709.41;;;21.35;61.62
77723;BME280;67811;42.656;23.394;2023-07-20T04:58:41;94707.97;;;21.22;61.91
77723;BME280;67811;42.656;23.394;2023-07-20T05:01:06;94711.72;;;21.26;61.85
77723;BME280;67811;42.656;23.394;2023-07-20T05:03:32;94703.66;;;21.26;61.61
77723;BME280;67811;42.656;23.394;2023-07-20T05:05:57;94696.44;;;21.31;61.63
77723;BME280;67811;42.656;23.394;2023-07-20T05:08:23;94704.38;;;21.53;61.58
77723;BME280;67811;42.656;23.394;2023-07-20T05:10:48;94716.88;;;21.75;60.80
77723;BME280;67811;42.656;23.394;2023-07-20T05:13:13;94704.78;;;21.82;60.28
77723;BME280;67811;42.656;23.394;2023-07-20T05:15:39;94701.03;;;21.94;59.92
77723;BME280;67811;42.656;23.394;2023-07-20T05:18:04;94713.56;;;22.20;59.48
77723;BME280;67811;42.656;23.394;2023-07-20T05:20:30;94708.75;;;22.63;58.38
77723;BME280;67811;42.656;23.394;2023-07-20T05:22:55;94702.28;;;23.20;56.54
77723;BME280;67811;42.656;23.394;2023-07-20T05:25:20;94702.47;;;23.49;56.00
77723;BME280;67811;42.656;23.394;2023-07-20T05:27:45;94698.16;;;23.63;54.38
77723;BME280;67811;42.656;23.394;2023-07-20T05:30:11;94703.28;;;23.55;53.52
77723;BME280;67811;42.656;23.394;2023-07-20T05:32:36;94708.47;;;23.46;54.11
77723;BME280;67811;42.656;23.394;2023-07-20T05:35:01;94706.56;;;23.52;54.10
77723;BME280;67811;42.656;23.394;2023-07-20T05:37:27;94708.09;;;23.78;53.88
77723;BME280;67811;42.656;23.394;2023-07-20T05:39:52;94712.41;;;23.84;53.34
77723;BME280;67811;42.656;23.394;2023-07-20T05:42:17;94713.75;;;23.87;53.20
77723;BME280;67811;42.656;23.394;2023-07-20T05:44:43;94710.69;;;24.09;52.68
77723;BME280;67811;42.656;23.394;2023-07-20T05:47:08;94719.22;;;24.31;52.43
77723;BME280;67811;42.656;23.394;2023-07-20T05:49:34;94712.75;;;24.71;51.43
77723;BME280;67811;42.656;23.394;2023-07-20T05:52:00;94719.81;;;25.07;50.07
77723;BME280;67811;42.656;23.394;2023-07-20T05:54:25;94722.44;;;25.70;49.01
77723;BME280;67811;42.656;23.394;2023-07-20T05:56:50;94724.75;;;26.30;46.67
77723;BME280;67811;42.656;23.394;2023-07-20T05:59:15;94724.81;;;26.48;46.05
77723;BME280;67811;42.656;23.394;2023-07-20T06:01:41;94727.31;;;26.21;46.32
77723;BME280;67811;42.656;23.394;2023-07-20T06:04:06;94721.03;;;26.20;46.83
77723;BME280;67811;42.656;23.394;2023-07-20T06:06:31;94714.31;;;26.37;47.00
77723;BME280;67811;42.656;23.394;2023-07-20T06:08:56;94710.97;;;26.64;46.29
77723;BME280;67811;42.656;23.394;2023-07-20T06:11:22;94715.66;;;26.58;45.93
77723;BME280;67811;42.656;23.394;2023-07-20T06:13:47;94718.38;;;26.58;47.30
77723;BME280;67811;42.656;23.394;2023-07-20T06:16:12;94710.03;;;27.06;45.80
77723;BME280;67811;42.656;23.394;2023-07-20T06:18:38;94712.47;;;27.40;44.35
77723;BME280;67811;42.656;23.394;2023-07-20T06:21:03;94697.94;;;27.31;45.13
77723;BME280;67811;42.656;23.394;2023-07-20T06:23:28;94702.28;;;27.32;44.48
77723;BME280;67811;42.656;23.394;2023-07-20T06:25:53;94695.72;;;27.33;44.17
77723;BME280;67811;42.656;23.394;2023-07-20T06:28:19;94691.50;;;27.27;44.14
77723;BME280;67811;42.656;23.394;2023-07-20T06:30:44;94687.34;;;27.29;44.64
77723;BME280;67811;42.656;23.394;2023-07-20T06:33:09;94678.06;;;27.77;44.19
77723;BME280;67811;42.656;23.394;2023-07-20T06:35:34;94687.59;;;28.02;43.56
77723;BME280;67811;42.656;23.394;2023-07-20T06:38:00;94686.56;;;28.53;42.33
77723;BME280;67811;42.656;23.394;2023-07-20T06:40:25;94689.00;;;28.27;42.36
77723;BME280;67811;42.656;23.394;2023-07-20T06:42:50;94690.06;;;28.03;42.38
77723;BME280;67811;42.656;23.394;2023-07-20T06:45:15;94686.22;;;27.77;43.05
77723;BME280;67811;42.656;23.394;2023-07-20T06:47:41;94690.25;;;27.93;43.21
77723;BME280;67811;42.656;23.394;2023-07-20T06:50:07;94692.25;;;28.01;43.17
77723;BME280;67811;42.656;23.394;2023-07-20T06:52:33;94690.25;;;27.93;43.62
77723;BME280;67811;42.656;23.394;2023-07-20T06:54:58;94693.19;;;27.83;43.56
77723;BME280;67811;42.656;23.394;2023-07-20T06:57:24;94696.41;;;27.85;43.65
77723;BME280;67811;42.656;23.394;2023-07-20T06:59:49;94693.19;;;27.97;43.27
77723;BME280;67811;42.656;23.394;2023-07-20T07:02:15;94694.97;;;28.15;42.97
77723;BME280;67811;42.656;23.394;2023-07-20T07:04:40;94709.09;;;28.17;43.11
77723;BME280;67811;42.656;23.394;2023-07-20T07:07:06;94714.44;;;28.36;42.54
77723;BME280;67811;42.656;23.394;2023-07-20T07:09:31;94723.31;;;28.42;42.39
77723;BME280;67811;42.656;23.394;2023-07-20T07:11:56;94724.38;;;28.68;42.27
77723;BME280;67811;42.656;23.394;2023-07-20T07:14:22;94723.94;;;28.39;42.88
77723;BME280;67811;42.656;23.394;2023-07-20T07:16:47;94726.97;;;28.37;42.88
77723;BME280;67811;42.656;23.394;2023-07-20T07:19:12;94738.94;;;28.22;43.05
77723;BME280;67811;42.656;23.394;2023-07-20T07:21:38;94739.69;;;28.14;43.25
77723;BME280;67811;42.656;23.394;2023-07-20T07:24:03;94753.34;;;27.68;44.10
77723;BME280;67811;42.656;23.394;2023-07-20T07:26:28;94766.41;;;27.98;43.60
77723;BME280;67811;42.656;23.394;2023-07-20T07:28:54;94764.91;;;28.20;43.37
77723;BME280;67811;42.656;23.394;2023-07-20T07:31:19;94763.84;;;28.71;42.52
77723;BME280;67811;42.656;23.394;2023-07-20T07:33:44;94762.66;;;29.22;41.36
77723;BME280;67811;42.656;23.394;2023-07-20T07:36:09;94762.59;;;29.80;40.00
77723;BME280;67811;42.656;23.394;2023-07-20T07:38:35;94751.13;;;30.09;38.65
77723;BME280;67811;42.656;23.394;2023-07-20T07:41:00;94754.78;;;29.65;39.06
77723;BME280;67811;42.656;23.394;2023-07-20T07:43:25;94747.06;;;29.98;38.78
77723;BME280;67811;42.656;23.394;2023-07-20T07:45:53;94746.47;;;30.50;38.05
77723;BME280;67811;42.656;23.394;2023-07-20T07:48:19;94746.94;;;30.52;37.44
77723;BME280;67811;42.656;23.394;2023-07-20T07:50:44;94760.53;;;30.83;36.54
77723;BME280;67811;42.656;23.394;2023-07-20T07:53:09;94748.31;;;31.06;36.46
77723;BME280;67811;42.656;23.394;2023-07-20T07:55:35;94712.56;;;31.37;35.72
77723;BME280;67811;42.656;23.394;2023-07-20T07:58:00;94690.66;;;31.29;36.06
77723;BME280;67811;42.656;23.394;2023-07-20T08:00:26;94700.66;;;31.07;35.99
77723;BME280;67811;42.656;23.394;2023-07-20T08:02:51;94716.91;;;30.95;37.05
77723;BME280;67811;42.656;23.394;2023-07-20T08:05:17;94716.00;;;31.72;36.31
77723;BME280;67811;42.656;23.394;2023-07-20T08:07:42;94701.59;;;32.22;34.61
77723;BME280;67811;42.656;23.394;2023-07-20T08:10:08;94712.47;;;32.48;34.24
77723;BME280;67811;42.656;23.394;2023-07-20T08:12:33;94730.34;;;32.16;34.16
77723;BME280;67811;42.656;23.394;2023-07-20T08:14:58;94731.75;;;31.93;34.88
77723;BME280;67811;42.656;23.394;2023-07-20T08:17:23;94747.41;;;32.22;33.97
77723;BME280;67811;42.656;23.394;2023-07-20T08:19:49;94759.28;;;31.96;34.27
77723;BME280;67811;42.656;23.394;2023-07-20T08:22:14;94751.63;;;31.64;35.44
77723;BME280;67811;42.656;23.394;2023-07-20T08:24:40;94740.91;;;31.33;36.14
77723;BME280;67811;42.656;23.394;2023-07-20T08:27:05;94753.13;;;30.92;36.84
77723;BME280;67811;42.656;23.394;2023-07-20T08:29:31;94768.13;;;31.29;37.11
77723;BME280;67811;42.656;23.394;2023-07-20T08:31:56;94746.19;;;31.20;37.25
77723;BME280;67811;42.656;23.394;2023-07-20T08:34:21;94729.88;;;31.59;37.17
77723;BME280;67811;42.656;23.394;2023-07-20T08:36:46;94734.13;;;31.13;38.42
77723;BME280;67811;42.656;23.394;2023-07-20T08:39:12;94747.63;;;30.66;39.71
77723;BME280;67811;42.656;23.394;2023-07-20T08:41:37;94755.59;;;30.36;39.59
77723;BME280;67811;42.656;23.394;2023-07-20T08:44:03;94746.91;;;29.95;38.18
77723;BME280;67811;42.656;23.394;2023-07-20T08:46:29;94742.47;;;29.45;37.51
77723;BME280;67811;42.656;23.394;2023-07-20T08:48:56;94742.25;;;29.95;37.48
77723;BME280;67811;42.656;23.394;2023-07-20T08:51:22;94741.78;;;29.62;37.01
77723;BME280;67811;42.656;23.394;2023-07-20T08:53:47;94744.22;;;29.72;37.04
77723;BME280;67811;42.656;23.394;2023-07-20T08:56:16;94748.00;;;29.85;36.52
77723;BME280;67811;42.656;23.394;2023-07-20T08:58:43;94741.81;;;30.10;36.11
77723;BME280;67811;42.656;23.394;2023-07-20T09:01:08;94743.88;;;30.44;35.42
77723;BME280;67811;42.656;23.394;2023-07-20T09:03:34;94723.56;;;29.88;36.07
77723;BME280;67811;42.656;23.394;2023-07-20T09:06:00;94726.38;;;29.44;36.97
77723;BME280;67811;42.656;23.394;2023-07-20T09:08:25;94722.63;;;29.93;36.56
77723;BME280;67811;42.656;23.394;2023-07-20T09:10:50;94726.28;;;30.20;36.08
77723;BME280;67811;42.656;23.394;2023-07-20T09:13:16;94727.47;;;30.44;34.43
77723;BME280;67811;42.656;23.394;2023-07-20T09:15:48;94727.63;;;30.65;34.56
77723;BME280;67811;42.656;23.394;2023-07-20T09:18:28;94717.88;;;30.73;33.68
77723;BME280;67811;42.656;23.394;2023-07-20T09:21:04;94713.03;;;31.22;33.58
77723;BME280;67811;42.656;23.394;2023-07-20T09:23:33;94721.56;;;31.03;33.72
77723;BME280;67811;42.656;23.394;2023-07-20T09:25:59;94718.97;;;31.24;33.48
77723;BME280;67811;42.656;23.394;2023-07-20T09:28:25;94693.81;;;31.48;32.19
77723;BME280;67811;42.656;23.394;2023-07-20T09:30:51;94695.97;;;31.34;31.98
77723;BME280;67811;42.656;23.394;2023-07-20T09:33:21;94694.34;;;31.24;31.93
77723;BME280;67811;42.656;23.394;2023-07-20T09:35:46;94696.13;;;31.37;31.99
77723;BME280;67811;42.656;23.394;2023-07-20T09:38:14;94711.75;;;31.02;31.73
77723;BME280;67811;42.656;23.394;2023-07-20T09:40:39;94705.66;;;30.79;32.49
77723;BME280;67811;42.656;23.394;2023-07-20T09:43:07;94701.94;;;31.27;31.82
77723;BME280;67811;42.656;23.394;2023-07-20T09:45:33;94700.31;;;31.17;32.04
77723;BME280;67811;42.656;23.394;2023-07-20T09:48:09;94690.00;;;31.23;31.15
77723;BME280;67811;42.656;23.394;2023-07-20T09:50:42;94682.63;;;31.32;31.79
77723;BME280;67811;42.656;23.394;2023-07-20T09:53:09;94694.09;;;31.64;32.22
77723;BME280;67811;42.656;23.394;2023-07-20T09:55:37;94687.09;;;31.92;30.13
77723;BME280;67811;42.656;23.394;2023-07-20T09:58:03;94686.25;;;32.00;29.67
77723;BME280;67811;42.656;23.394;2023-07-20T10:00:29;94675.03;;;31.85;29.18
77723;BME280;67811;42.656;23.394;2023-07-20T10:02:55;94661.59;;;31.54;29.41
77723;BME280;67811;42.656;23.394;2023-07-20T10:05:21;94660.22;;;31.30;30.04
77723;BME280;67811;42.656;23.394;2023-07-20T10:07:48;94662.31;;;31.16;29.58
77723;BME280;67811;42.656;23.394;2023-07-20T10:10:16;94661.38;;;31.03;30.07
77723;BME280;67811;42.656;23.394;2023-07-20T10:12:42;94669.72;;;30.55;30.43
77723;BME280;67811;42.656;23.394;2023-07-20T10:15:15;94664.72;;;30.48;29.84
77723;BME280;67811;42.656;23.394;2023-07-20T10:17:59;94676.59;;;30.26;30.44
77723;BME280;67811;42.656;23.394;2023-07-20T10:20:27;94671.66;;;30.28;31.02
77723;BME280;67811;42.656;23.394;2023-07-20T10:22:54;94674.84;;;30.30;30.89
77723;BME280;67811;42.656;23.394;2023-07-20T10:25:22;94670.75;;;30.02;31.33
77723;BME280;67811;42.656;23.394;2023-07-20T10:27:48;94682.00;;;30.00;32.14
77723;BME280;67811;42.656;23.394;2023-07-20T10:30:13;94682.28;;;29.90;31.74
77723;BME280;67811;42.656;23.394;2023-07-20T10:32:40;94690.59;;;29.76;31.98
77723;BME280;67811;42.656;23.394;2023-07-20T10:35:14;94688.88;;;29.89;32.55
77723;BME280;67811;42.656;23.394;2023-07-20T10:37:51;94677.91;;;30.37;32.62
77723;BME280;67811;42.656;23.394;2023-07-20T10:42:58;94680.66;;;30.46;31.88
77723;BME280;67811;42.656;23.394;2023-07-20T10:45:41;94686.97;;;30.55;31.72
77723;BME280;67811;42.656;23.394;2023-07-20T10:48:15;94685.59;;;30.18;31.61
77723;BME280;67811;42.656;23.394;2023-07-20T10:50:41;94662.31;;;30.38;31.76
77723;BME280;67811;42.656;23.394;2023-07-20T10:53:18;94633.53;;;30.49;30.45
77723;BME280;67811;42.656;23.394;2023-07-20T10:55:43;94593.66;;;30.74;30.53
77723;BME280;67811;42.656;23.394;2023-07-20T10:58:13;94630.13;;;31.04;29.87
77723;BME280;67811;42.656;23.394;2023-07-20T11:00:58;94656.22;;;30.67;30.51
77723;BME280;67811;42.656;23.394;2023-07-20T11:03:31;94638.69;;;30.68;30.61
77723;BME280;67811;42.656;23.394;2023-07-20T11:05:57;94623.25;;;30.81;30.50
77723;BME280;67811;42.656;23.394;2023-07-20T11:08:41;94616.44;;;31.04;29.92
77723;BME280;67811;42.656;23.394;2023-07-20T11:11:25;94609.88;;;30.96;30.59
77723;BME280;67811;42.656;23.394;2023-07-20T11:13:58;94607.91;;;31.61;30.05
77723;BME280;67811;42.656;23.394;2023-07-20T11:19:06;94606.31;;;32.19;29.05
77723;BME280;67811;42.656;23.394;2023-07-20T11:21:37;94605.03;;;32.17;28.80
77723;BME280;67811;42.656;23.394;2023-07-20T11:24:06;94604.69;;;31.97;28.94
77723;BME280;67811;42.656;23.394;2023-07-20T11:26:40;94601.13;;;32.26;29.18
77723;BME280;67811;42.656;23.394;2023-07-20T11:29:05;94604.53;;;32.65;29.03
77723;BME280;67811;42.656;23.394;2023-07-20T11:31:35;94587.94;;;32.62;29.47
77723;BME280;67811;42.656;23.394;2023-07-20T11:34:00;94588.47;;;32.34;29.89
77723;BME280;67811;42.656;23.394;2023-07-20T11:36:25;94591.19;;;32.43;30.16
77723;BME280;67811;42.656;23.394;2023-07-20T11:38:51;94580.31;;;33.00;29.86
77723;BME280;67811;42.656;23.394;2023-07-20T11:41:16;94583.09;;;33.13;29.93
77723;BME280;67811;42.656;23.394;2023-07-20T11:43:42;94579.41;;;33.54;28.85
77723;BME280;67811;42.656;23.394;2023-07-20T11:46:07;94567.50;;;33.87;28.49
77723;BME280;67811;42.656;23.394;2023-07-20T11:48:32;94566.69;;;33.49;28.85
77723;BME280;67811;42.656;23.394;2023-07-20T11:50:58;94571.41;;;33.49;28.99
77723;BME280;67811;42.656;23.394;2023-07-20T11:53:24;94562.06;;;33.29;29.98
77723;BME280;67811;42.656;23.394;2023-07-20T11:55:50;94559.84;;;33.43;30.07
77723;BME280;67811;42.656;23.394;2023-07-20T11:58:15;94553.09;;;33.41;29.18
77723;BME280;67811;42.656;23.394;2023-07-20T12:00:44;94550.16;;;33.13;29.49
77723;BME280;67811;42.656;23.394;2023-07-20T12:03:09;94553.09;;;33.53;29.73
77723;BME280;67811;42.656;23.394;2023-07-20T12:05:36;94552.97;;;33.86;28.86
77723;BME280;67811;42.656;23.394;2023-07-20T12:08:01;94545.81;;;34.22;28.58
77723;BME280;67811;42.656;23.394;2023-07-20T12:10:27;94544.44;;;34.16;28.47
77723;BME280;67811;42.656;23.394;2023-07-20T12:12:53;94544.63;;;33.70;28.28
77723;BME280;67811;42.656;23.394;2023-07-20T12:15:23;94541.97;;;33.86;28.70
77723;BME280;67811;42.656;23.394;2023-07-20T12:17:51;94534.56;;;34.27;27.55
77723;BME280;67811;42.656;23.394;2023-07-20T12:20:36;94531.56;;;33.67;28.10
77723;BME280;67811;42.656;23.394;2023-07-20T12:23:09;94528.66;;;33.88;27.43
77723;BME280;67811;42.656;23.394;2023-07-20T12:25:42;94525.34;;;33.82;27.33
77723;BME280;67811;42.656;23.394;2023-07-20T12:28:15;94523.16;;;33.88;27.38
77723;BME280;67811;42.656;23.394;2023-07-20T12:30:41;94531.78;;;33.74;27.90
77723;BME280;67811;42.656;23.394;2023-07-20T12:33:07;94523.59;;;34.15;25.81
77723;BME280;67811;42.656;23.394;2023-07-20T12:35:33;94532.13;;;33.85;25.68
77723;BME280;67811;42.656;23.394;2023-07-20T12:37:58;94511.88;;;34.30;25.53
77723;BME280;67811;42.656;23.394;2023-07-20T12:40:24;94528.72;;;33.64;25.72
77723;BME280;67811;42.656;23.394;2023-07-20T12:42:50;94521.16;;;33.61;25.58
77723;BME280;67811;42.656;23.394;2023-07-20T12:45:15;94526.88;;;33.55;25.56
77723;BME280;67811;42.656;23.394;2023-07-20T12:47:41;94527.19;;;33.66;25.94
77723;BME280;67811;42.656;23.394;2023-07-20T12:50:07;94527.66;;;33.32;26.53
77723;BME280;67811;42.656;23.394;2023-07-20T12:52:36;94515.56;;;33.57;25.93
77723;BME280;67811;42.656;23.394;2023-07-20T12:55:02;94505.56;;;33.77;25.04
77723;BME280;67811;42.656;23.394;2023-07-20T12:57:27;94516.00;;;33.59;24.67
77723;BME280;67811;42.656;23.394;2023-07-20T12:59:52;94511.03;;;33.40;24.72
77723;BME280;67811;42.656;23.394;2023-07-20T13:02:17;94510.16;;;33.61;24.51
77723;BME280;67811;42.656;23.394;2023-07-20T13:04:43;94508.06;;;33.94;23.77